createdAt,value
2019-06-07T00:01:01.439Z,10.65
2019-06-07T00:03:30.227Z,10.89
2019-06-07T00:05:55.648Z,10.96
2019-06-07T00:08:27.922Z,10.77
2019-06-07T00:10:49.808Z,10.60
2019-06-07T00:13:18.804Z,10.57
2019-06-07T00:15:43.965Z,10.56
2019-06-07T00:18:13.571Z,10.59
2019-06-07T00:20:38.039Z,10.66
2019-06-07T00:23:04.357Z,10.72
2019-06-07T00:25:30.531Z,10.80
2019-06-07T00:27:56.931Z,10.85
2019-06-07T00:30:42.256Z,10.84
2019-06-07T00:32:51.855Z,10.85
2019-06-07T00:35:21.024Z,10.81
2019-06-07T00:37:46.553Z,10.54
2019-06-07T00:40:17.777Z,10.15
2019-06-07T00:42:41.123Z,9.87
2019-06-07T00:45:08.569Z,9.74
2019-06-07T00:47:35.961Z,9.97
2019-06-07T00:50:03.580Z,10.10
2019-06-07T00:54:59.455Z,10.26
2019-06-07T00:57:25.635Z,10.31
2019-06-07T00:59:51.984Z,10.37
2019-06-07T01:02:21.422Z,10.55
2019-06-07T01:04:46.675Z,10.65
2019-06-07T01:07:13.239Z,10.53
2019-06-07T01:09:39.345Z,10.43
2019-06-07T01:12:05.648Z,10.19
2019-06-07T01:14:31.727Z,10.07
2019-06-07T01:17:22.032Z,10.07
2019-06-07T01:19:27.774Z,10.13
2019-06-07T01:21:54.789Z,10.16
2019-06-07T01:24:24.546Z,10.25
2019-06-07T01:26:48.927Z,10.37
2019-06-07T01:29:17.850Z,10.45
2019-06-07T01:31:44.240Z,10.43
2019-06-07T01:34:10.628Z,10.23
2019-06-07T01:36:36.732Z,10.16
2019-06-07T01:39:05.174Z,10.15
2019-06-07T01:41:31.413Z,7.97
2019-06-07T01:43:58.405Z,10.20
2019-06-07T01:46:26.743Z,10.26
2019-06-07T01:48:52.581Z,10.28
2019-06-07T01:51:19.985Z,10.33
2019-06-07T01:53:46.351Z,10.37
2019-06-07T01:56:12.609Z,10.33
2019-06-07T01:58:38.847Z,10.29
2019-06-07T02:01:05.297Z,10.32
2019-06-07T02:03:33.325Z,10.36
2019-06-07T02:05:59.448Z,10.36
2019-06-07T02:08:27.249Z,10.28
2019-06-07T02:10:53.494Z,10.16
2019-06-07T02:13:20.909Z,10.06
2019-06-07T02:15:47.438Z,9.95
2019-06-07T02:18:13.676Z,10.15
2019-06-07T02:20:39.751Z,10.05
2019-06-07T02:23:05.837Z,9.66
2019-06-07T02:25:45.486Z,9.35
2019-06-07T02:28:26.386Z,9.30
2019-06-07T02:30:46.079Z,9.49
2019-06-07T02:32:57.408Z,9.62
2019-06-07T02:35:30.902Z,9.71
2019-06-07T02:37:51.586Z,9.70
2019-06-07T02:40:18.184Z,9.82
2019-06-07T02:42:44.370Z,9.98
2019-06-07T02:45:11.227Z,10.04
2019-06-07T02:47:38.471Z,10.13
2019-06-07T02:50:07.954Z,10.24
2019-06-07T02:52:39.901Z,10.35
2019-06-07T02:55:04.398Z,10.47
2019-06-07T02:57:36.993Z,10.59
2019-06-07T03:00:16.083Z,10.62
2019-06-07T03:02:32.809Z,10.71
2019-06-07T03:04:56.099Z,10.71
2019-06-07T03:07:24.029Z,10.65
2019-06-07T03:09:50.583Z,10.69
2019-06-07T03:12:18.909Z,10.57
2019-06-07T03:14:45.557Z,10.32
2019-06-07T03:17:15.005Z,10.40
2019-06-07T03:19:41.957Z,10.51
2019-06-07T03:22:08.462Z,10.47
2019-06-07T03:24:36.214Z,10.39
2019-06-07T03:27:34.287Z,10.27
2019-06-07T03:29:33.823Z,10.41
2019-06-07T03:32:01.023Z,10.49
2019-06-07T03:34:29.729Z,10.55
2019-06-07T03:36:55.088Z,10.65
2019-06-07T03:39:21.448Z,10.99
2019-06-07T03:42:05.025Z,10.86
2019-06-07T03:44:15.864Z,10.81
2019-06-07T03:46:42.080Z,10.82
2019-06-07T03:49:08.164Z,10.86
2019-06-07T03:51:35.700Z,10.89
2019-06-07T03:54:03.902Z,10.82
2019-06-07T03:56:31.777Z,10.81
2019-06-07T03:58:58.054Z,10.79
2019-06-07T04:01:24.348Z,10.66
2019-06-07T04:03:52.141Z,10.58
2019-06-07T04:06:18.621Z,10.39
2019-06-07T04:08:45.019Z,10.32
2019-06-07T04:11:11.393Z,10.40
2019-06-07T04:13:42.571Z,10.51
2019-06-07T04:16:05.795Z,10.57
2019-06-07T04:18:33.086Z,9.72
2019-06-07T04:20:59.922Z,10.88
2019-06-07T04:23:29.943Z,10.96
2019-06-07T04:25:55.258Z,11.10
2019-06-07T04:28:21.337Z,10.91
2019-06-07T04:30:47.593Z,10.82
2019-06-07T04:33:13.904Z,10.94
2019-06-07T04:35:42.885Z,10.94
2019-06-07T04:38:10.558Z,10.90
2019-06-07T04:40:42.473Z,10.96
2019-06-07T04:43:07.861Z,10.99
2019-06-07T04:45:41.849Z,11.17
2019-06-07T04:48:05.105Z,11.12
2019-06-07T04:50:34.335Z,11.21
2019-06-07T04:53:00.370Z,11.66
2019-06-07T04:55:26.936Z,11.74
2019-06-07T04:57:53.114Z,11.62
2019-06-07T05:00:52.806Z,11.57
2019-06-07T05:02:59.269Z,11.56
2019-06-07T05:05:25.518Z,11.60
2019-06-07T05:07:51.705Z,11.71
2019-06-07T05:10:17.967Z,11.76
2019-06-07T05:12:45.037Z,11.64
2019-06-07T05:15:12.854Z,11.59
2019-06-07T05:17:42.513Z,11.71
2019-06-07T05:20:07.122Z,11.54
2019-06-07T05:22:34.889Z,11.42
2019-06-07T05:25:01.386Z,11.22
2019-06-07T05:27:27.566Z,11.20
2019-06-07T05:30:50.671Z,11.02
2019-06-07T05:32:22.070Z,11.17
2019-06-07T05:34:48.416Z,11.21
2019-06-07T05:37:14.738Z,11.16
2019-06-07T05:39:45.549Z,11.27
2019-06-07T05:42:09.479Z,11.29
2019-06-07T05:44:36.509Z,11.54
2019-06-07T05:47:03.314Z,11.76
2019-06-07T05:49:29.397Z,11.91
2019-06-07T05:51:55.599Z,12.07
2019-06-07T05:54:21.691Z,12.54
2019-06-07T05:56:47.791Z,12.96
2019-06-07T05:59:14.294Z,14.29
2019-06-07T06:01:48.000Z,16.11
2019-06-07T06:04:08.554Z,17.37
2019-06-07T06:06:36.345Z,17.74
2019-06-07T06:09:13.849Z,18.19
2019-06-07T06:11:45.889Z,18.19
2019-06-07T06:14:07.579Z,17.56
2019-06-07T06:16:29.254Z,17.08
2019-06-07T06:18:55.436Z,16.63
2019-06-07T06:21:21.563Z,16.55
2019-06-07T06:23:52.087Z,16.35
2019-06-07T06:26:16.907Z,16.47
2019-06-07T06:28:45.263Z,16.59
2019-06-07T06:31:11.153Z,16.37
2019-06-07T06:33:37.518Z,17.01
2019-06-07T06:36:03.709Z,17.70
2019-06-07T06:38:29.802Z,18.06
2019-06-07T06:41:14.742Z,19.18
2019-06-07T06:43:24.035Z,19.54
2019-06-07T06:45:50.775Z,19.87
2019-06-07T06:48:16.970Z,20.03
2019-06-07T06:50:44.427Z,20.04
2019-06-07T06:53:11.079Z,19.92
2019-06-07T06:55:37.369Z,19.85
2019-06-07T06:58:03.625Z,19.27
2019-06-07T07:00:55.437Z,19.32
2019-06-07T07:05:46.285Z,20.26
2019-06-07T07:08:12.917Z,20.46
2019-06-07T07:10:43.663Z,20.41
2019-06-07T07:13:12.028Z,20.20
2019-06-07T07:15:38.343Z,20.69
2019-06-07T07:18:08.752Z,21.02
2019-06-07T07:20:32.639Z,21.11
2019-06-07T07:22:58.986Z,20.62
2019-06-07T07:25:25.324Z,20.07
2019-06-07T07:27:54.949Z,19.69
2019-06-07T07:30:47.510Z,19.81
2019-06-07T07:33:14.636Z,19.39
2019-06-07T07:36:04.749Z,19.07
2019-06-07T07:38:10.397Z,18.86
2019-06-07T07:40:56.979Z,18.98
2019-06-07T07:43:05.099Z,18.55
2019-06-07T07:45:31.379Z,18.04
2019-06-07T07:48:13.757Z,17.87
2019-06-07T07:50:25.469Z,18.09
2019-06-07T07:52:56.017Z,18.49
2019-06-07T07:55:20.426Z,18.53
2019-06-07T07:57:48.676Z,18.61
2019-06-07T08:00:49.527Z,18.29
2019-06-07T08:02:43.632Z,18.69
2019-06-07T08:05:25.314Z,18.86
2019-06-07T08:07:39.346Z,18.81
2019-06-07T08:10:06.507Z,18.78
2019-06-07T08:12:55.146Z,18.98
2019-06-07T08:15:03.674Z,18.79
2019-06-07T08:17:31.025Z,18.63
2019-06-07T08:19:57.730Z,18.01
2019-06-07T08:22:24.632Z,17.77
2019-06-07T08:24:52.985Z,17.93
2019-06-07T08:27:26.324Z,18.07
2019-06-07T08:30:03.834Z,18.28
2019-06-07T08:32:15.298Z,18.32
2019-06-07T08:34:41.502Z,18.44
2019-06-07T08:37:07.646Z,18.75
2019-06-07T08:39:33.895Z,19.02
2019-06-07T08:42:14.827Z,19.23
2019-06-07T08:44:28.284Z,19.45
2019-06-07T08:47:16.043Z,19.43
2019-06-07T08:49:22.497Z,19.18
2019-06-07T08:51:48.905Z,19.23
2019-06-07T08:54:22.799Z,19.46
2019-06-07T08:56:43.757Z,19.60
2019-06-07T08:59:11.508Z,19.18
2019-06-07T09:01:37.912Z,18.65
2019-06-07T09:04:09.757Z,18.49
2019-06-07T09:09:01.970Z,18.87
2019-06-07T09:11:29.265Z,19.31
2019-06-07T09:13:57.202Z,19.91
2019-06-07T09:16:23.780Z,20.19
2019-06-07T09:18:49.868Z,20.33
2019-06-07T09:21:16.028Z,19.71
2019-06-07T09:23:42.434Z,20.10
2019-06-07T09:26:17.618Z,19.81
2019-06-07T09:28:37.452Z,19.13
2019-06-07T09:31:09.521Z,19.16
2019-06-07T09:33:31.864Z,18.83
2019-06-07T09:36:00.741Z,19.26
2019-06-07T09:38:26.958Z,20.27
2019-06-07T09:40:53.327Z,20.88
2019-06-07T09:43:59.954Z,21.02
2019-06-07T09:45:47.454Z,21.45
2019-06-07T09:48:23.924Z,21.70
2019-06-07T09:50:41.814Z,21.38
2019-06-07T09:53:20.888Z,22.03
2019-06-07T09:55:37.395Z,22.48
2019-06-07T09:58:47.774Z,21.56
2019-06-07T10:00:40.529Z,21.44
2019-06-07T10:03:05.603Z,21.50
2019-06-07T10:05:27.912Z,20.70
2019-06-07T10:08:07.246Z,20.70
2019-06-07T10:12:51.233Z,20.27
2019-06-07T10:15:17.521Z,20.20
2019-06-07T10:17:43.683Z,19.61
2019-06-07T10:20:10.888Z,19.76
2019-06-07T10:22:39.954Z,20.60
2019-06-07T10:25:06.530Z,19.80
2019-06-07T10:27:34.293Z,19.69
2019-06-07T10:30:02.209Z,20.09
2019-06-07T10:32:28.542Z,20.03
2019-06-07T10:34:54.653Z,20.15
2019-06-07T10:37:20.819Z,19.66
2019-06-07T10:39:48.978Z,20.50
2019-06-07T10:42:15.096Z,21.35
2019-06-07T10:44:41.293Z,21.69
2019-06-07T10:47:08.164Z,21.46
2019-06-07T10:49:34.362Z,20.88
2019-06-07T10:52:03.333Z,20.54
2019-06-07T10:54:30.839Z,19.94
2019-06-07T10:56:56.684Z,20.40
2019-06-07T10:59:22.773Z,20.92
2019-06-07T11:01:48.839Z,21.03
2019-06-07T11:04:15.000Z,20.90
2019-06-07T11:06:41.148Z,20.59
2019-06-07T11:09:07.937Z,20.71
2019-06-07T11:11:34.359Z,21.02
2019-06-07T11:14:00.629Z,20.95
2019-06-07T11:16:26.775Z,21.49
2019-06-07T11:18:52.868Z,21.50
2019-06-07T11:21:19.013Z,21.68
2019-06-07T11:23:45.839Z,21.84
2019-06-07T11:26:12.498Z,22.11
2019-06-07T11:28:38.744Z,22.13
2019-06-07T11:31:06.237Z,21.42
2019-06-07T11:33:32.638Z,21.05
2019-06-07T11:36:20.811Z,21.25
2019-06-07T11:38:46.879Z,21.65
2019-06-07T11:41:13.568Z,21.33
2019-06-07T11:43:39.804Z,21.44
2019-06-07T11:46:06.778Z,21.94
2019-06-07T11:48:33.364Z,21.85
2019-06-07T11:50:59.415Z,21.85
2019-06-07T11:53:27.094Z,21.59
2019-06-07T11:55:53.162Z,21.49
2019-06-07T11:58:21.757Z,21.29
2019-06-07T12:00:47.375Z,21.08
2019-06-07T12:03:13.967Z,21.44
2019-06-07T12:05:40.265Z,21.45
2019-06-07T12:08:07.972Z,21.60
2019-06-07T12:10:42.638Z,21.83
2019-06-07T12:13:03.058Z,22.08
2019-06-07T12:15:29.309Z,22.12
2019-06-07T12:17:55.912Z,22.27
2019-06-07T12:20:22.456Z,22.39
2019-06-07T12:22:48.654Z,22.49
2019-06-07T12:25:19.725Z,22.56
2019-06-07T12:27:42.999Z,22.43
2019-06-07T12:30:17.505Z,22.26
2019-06-07T12:32:38.040Z,22.30
2019-06-07T12:35:06.088Z,22.23
2019-06-07T12:37:43.192Z,22.35
2019-06-07T12:40:00.279Z,22.35
2019-06-07T12:42:26.356Z,22.65
2019-06-07T12:44:52.427Z,22.83
2019-06-07T12:47:18.931Z,22.93
2019-06-07T12:49:45.079Z,23.02
2019-06-07T12:52:13.931Z,23.12
2019-06-07T12:54:39.342Z,22.94
2019-06-07T12:57:05.566Z,22.82
2019-06-07T12:59:31.635Z,22.77
2019-06-07T13:02:02.246Z,23.15
2019-06-07T13:04:27.655Z,23.22
2019-06-07T13:06:53.698Z,22.91
2019-06-07T13:09:19.916Z,22.80
2019-06-07T13:11:46.205Z,22.87
2019-06-07T13:14:12.428Z,22.75
2019-06-07T13:16:38.627Z,22.73
2019-06-07T13:19:04.722Z,23.25
2019-06-07T13:21:30.909Z,23.54
2019-06-07T13:23:56.992Z,23.60
2019-06-07T13:26:24.931Z,23.42
2019-06-07T13:28:51.482Z,23.56
2019-06-07T13:31:18.776Z,23.78
2019-06-07T13:33:45.131Z,23.61
2019-06-07T13:36:11.215Z,23.27
2019-06-07T13:38:37.383Z,23.31
2019-06-07T13:41:04.483Z,23.35
2019-06-07T13:43:30.879Z,23.53
2019-06-07T13:45:57.489Z,23.57
2019-06-07T13:48:23.682Z,23.70
2019-06-07T13:50:49.728Z,23.89
2019-06-07T13:53:15.891Z,23.84
2019-06-07T13:55:42.194Z,24.15
2019-06-07T13:58:08.257Z,23.81
2019-06-07T14:00:34.782Z,24.00
2019-06-07T14:03:01.080Z,24.04
2019-06-07T14:05:27.371Z,24.11
2019-06-07T14:07:54.271Z,24.04
2019-06-07T14:10:21.598Z,23.95
2019-06-07T14:12:48.165Z,23.57
2019-06-07T14:15:15.175Z,23.82
2019-06-07T14:17:41.312Z,24.04
2019-06-07T14:20:07.870Z,23.30
2019-06-07T14:22:34.104Z,23.15
2019-06-07T14:25:00.610Z,23.35
2019-06-07T14:27:27.592Z,24.00
2019-06-07T14:29:53.885Z,24.15
2019-06-07T14:32:19.941Z,24.28
2019-06-07T14:34:46.021Z,24.64
2019-06-07T14:37:12.243Z,24.53
2019-06-07T14:39:38.474Z,24.33
2019-06-07T14:42:09.875Z,24.18
2019-06-07T14:44:33.884Z,24.06
2019-06-07T14:47:00.303Z,23.88
2019-06-07T14:49:26.462Z,23.99
2019-06-07T14:51:52.968Z,24.42
2019-06-07T14:54:19.078Z,24.96
2019-06-07T14:56:45.549Z,25.10
2019-06-07T14:59:12.164Z,24.78
2019-06-07T15:01:40.714Z,24.35
2019-06-07T15:04:06.889Z,24.25
2019-06-07T15:06:39.353Z,24.81
2019-06-07T15:09:06.355Z,25.02
2019-06-07T15:11:33.112Z,24.96
2019-06-07T15:13:59.360Z,24.71
2019-06-07T15:16:25.617Z,24.42
2019-06-07T15:18:51.915Z,24.77
2019-06-07T15:21:18.618Z,25.07
2019-06-07T15:23:45.443Z,25.00
2019-06-07T15:26:11.631Z,25.08
2019-06-07T15:28:38.496Z,25.16
2019-06-07T15:31:04.711Z,25.06
2019-06-07T15:33:31.839Z,24.93
2019-06-07T15:35:58.116Z,24.99
2019-06-07T15:38:24.171Z,24.78
2019-06-07T15:40:50.396Z,24.77
2019-06-07T15:43:16.474Z,24.68
2019-06-07T15:45:43.363Z,24.29
2019-06-07T15:48:09.539Z,24.53
2019-06-07T15:50:36.151Z,24.68
2019-06-07T15:53:02.401Z,24.62
2019-06-07T15:55:28.600Z,24.79
2019-06-07T15:57:54.976Z,24.94
2019-06-07T16:00:22.129Z,24.73
2019-06-07T16:02:48.188Z,24.76
2019-06-07T16:05:14.918Z,24.94
2019-06-07T16:07:42.895Z,24.89
2019-06-07T16:10:10.320Z,24.71
2019-06-07T16:12:36.804Z,24.42
2019-06-07T16:15:07.207Z,24.32
2019-06-07T16:17:35.091Z,24.21
2019-06-07T16:20:03.199Z,24.38
2019-06-07T16:22:29.481Z,24.32
2019-06-07T16:24:55.828Z,24.26
2019-06-07T16:27:22.004Z,24.03
2019-06-07T16:29:48.428Z,24.09
2019-06-07T16:32:14.773Z,24.19
2019-06-07T16:34:41.811Z,24.43
2019-06-07T16:37:21.632Z,24.46
2019-06-07T16:39:54.086Z,24.65
2019-06-07T16:42:20.471Z,24.84
2019-06-07T16:44:46.579Z,24.70
2019-06-07T16:47:12.821Z,24.65
2019-06-07T16:49:38.936Z,24.54
2019-06-07T16:52:05.246Z,24.43
2019-06-07T16:54:31.328Z,24.38
2019-06-07T16:56:58.436Z,24.18
2019-06-07T16:59:24.512Z,24.13
2019-06-07T17:01:50.844Z,23.90
2019-06-07T17:04:16.932Z,24.01
2019-06-07T17:06:43.719Z,23.96
2019-06-07T17:09:10.047Z,24.02
2019-06-07T17:11:36.360Z,24.06
2019-06-07T17:14:03.337Z,24.26
2019-06-07T17:16:29.415Z,24.31
2019-06-07T17:18:55.561Z,24.33
2019-06-07T17:21:21.735Z,24.07
2019-06-07T17:23:47.975Z,24.17
2019-06-07T17:26:14.260Z,24.26
2019-06-07T17:28:41.748Z,24.19
2019-06-07T17:31:08.082Z,24.26
2019-06-07T17:33:34.287Z,24.26
2019-06-07T17:36:00.379Z,24.26
2019-06-07T17:38:26.557Z,24.30
2019-06-07T17:40:52.654Z,24.29
2019-06-07T17:43:18.716Z,24.13
2019-06-07T17:45:45.452Z,23.92
2019-06-07T17:48:11.701Z,23.86
2019-06-07T17:50:37.952Z,23.87
2019-06-07T17:53:04.107Z,23.78
2019-06-07T17:55:30.594Z,23.61
2019-06-07T17:57:56.951Z,23.46
2019-06-07T18:00:28.523Z,23.37
2019-06-07T18:02:55.082Z,23.35
2019-06-07T18:05:21.248Z,23.34
2019-06-07T18:07:51.694Z,23.39
2019-06-07T18:10:33.823Z,23.28
2019-06-07T18:12:59.987Z,23.24
2019-06-07T18:15:38.889Z,23.12
2019-06-07T18:18:05.336Z,23.05
2019-06-07T18:20:31.783Z,23.01
2019-06-07T18:22:58.812Z,23.11
2019-06-07T18:25:25.027Z,23.08
2019-06-07T18:27:52.659Z,22.93
2019-06-07T18:30:18.925Z,22.98
2019-06-07T18:32:45.067Z,23.12
2019-06-07T18:35:11.240Z,23.10
2019-06-07T18:37:37.360Z,23.16
2019-06-07T18:40:06.665Z,23.03
2019-06-07T18:42:33.123Z,22.96
2019-06-07T18:44:59.478Z,22.78
2019-06-07T18:47:25.665Z,22.72
2019-06-07T18:49:51.879Z,22.69
2019-06-07T18:52:18.113Z,22.68
2019-06-07T18:54:44.360Z,22.71
2019-06-07T18:57:12.331Z,22.23
2019-06-07T18:59:38.743Z,22.44
2019-06-07T19:02:04.940Z,22.38
2019-06-07T19:04:31.038Z,22.35
2019-06-07T19:06:58.256Z,22.30
2019-06-07T19:09:24.798Z,22.41
2019-06-07T19:11:51.027Z,22.21
2019-06-07T19:14:17.307Z,22.06
2019-06-07T19:16:43.658Z,21.98
2019-06-07T19:19:10.911Z,21.80
2019-06-07T19:21:36.993Z,21.79
2019-06-07T19:24:03.268Z,21.75
2019-06-07T19:26:30.391Z,21.74
2019-06-07T19:28:56.832Z,21.72
2019-06-07T19:31:24.250Z,21.60
2019-06-07T19:33:51.048Z,21.52
2019-06-07T19:36:17.365Z,21.43
2019-06-07T19:38:43.566Z,21.33
2019-06-07T19:41:19.323Z,21.23
2019-06-07T19:43:37.725Z,21.12
2019-06-07T19:46:04.016Z,21.31
2019-06-07T19:48:30.337Z,21.26
2019-06-07T19:50:57.543Z,21.19
2019-06-07T19:53:25.313Z,21.43
2019-06-07T19:55:52.990Z,21.81
2019-06-07T19:58:19.374Z,22.31
2019-06-07T20:00:45.818Z,22.67
2019-06-07T20:03:12.871Z,22.69
2019-06-07T20:05:38.959Z,22.75
2019-06-07T20:08:05.221Z,22.74
2019-06-07T20:10:31.357Z,22.71
2019-06-07T20:12:58.701Z,22.52
2019-06-07T20:15:28.855Z,22.28
2019-06-07T20:17:53.166Z,22.11
2019-06-07T20:20:19.868Z,21.81
2019-06-07T20:22:46.286Z,21.66
2019-06-07T20:25:12.875Z,21.53
2019-06-07T20:27:39.141Z,21.36
2019-06-07T20:30:10.756Z,21.15
2019-06-07T20:32:36.963Z,21.06
2019-06-07T20:35:05.952Z,20.85
2019-06-07T20:37:32.213Z,20.64
2019-06-07T20:40:02.850Z,20.50
2019-06-07T20:42:26.457Z,20.36
2019-06-07T20:44:52.640Z,20.25
2019-06-07T20:47:18.751Z,20.19
2019-06-07T20:49:44.940Z,20.22
2019-06-07T20:52:11.246Z,20.09
2019-06-07T20:54:37.402Z,20.01
2019-06-07T20:57:04.798Z,19.90
2019-06-07T20:59:30.951Z,19.79
2019-06-07T21:01:57.076Z,19.64
2019-06-07T21:04:24.415Z,19.50
2019-06-07T21:06:50.767Z,19.37
2019-06-07T21:09:16.929Z,19.29
2019-06-07T21:11:43.238Z,19.12
2019-06-07T21:14:10.303Z,18.97
2019-06-07T21:16:36.594Z,18.72
2019-06-07T21:19:04.138Z,18.64
2019-06-07T21:21:30.694Z,18.57
2019-06-07T21:23:56.810Z,18.31
2019-06-07T21:26:23.077Z,17.99
2019-06-07T21:28:50.207Z,17.95
2019-06-07T21:31:16.241Z,17.75
2019-06-07T21:33:42.464Z,17.58
2019-06-07T21:36:09.704Z,17.51
2019-06-07T21:38:36.234Z,17.39
2019-06-07T21:41:02.492Z,17.26
2019-06-07T21:43:28.688Z,17.28
2019-06-07T21:46:04.664Z,17.01
2019-06-07T21:48:22.857Z,16.71
2019-06-07T21:50:49.011Z,16.37
2019-06-07T21:53:15.067Z,16.26
2019-06-07T21:55:41.161Z,16.03
2019-06-07T21:58:07.492Z,15.95
2019-06-07T22:00:49.006Z,15.94
2019-06-07T22:03:17.045Z,16.01
2019-06-07T22:05:43.367Z,16.04
2019-06-07T22:08:10.390Z,15.81
2019-06-07T22:10:37.157Z,15.78
2019-06-07T22:13:03.973Z,15.71
2019-06-07T22:15:35.390Z,15.66
2019-06-07T22:17:58.262Z,15.54
2019-06-07T22:20:24.452Z,15.55
2019-06-07T22:22:50.547Z,15.18
2019-06-07T22:25:17.018Z,15.34
2019-06-07T22:27:43.484Z,15.26
2019-06-07T22:30:10.543Z,15.36
2019-06-07T22:32:36.696Z,15.40
2019-06-07T22:35:04.391Z,15.49
2019-06-07T22:37:31.462Z,15.59
2019-06-07T22:39:57.832Z,15.61
2019-06-07T22:42:24.017Z,15.18
2019-06-07T22:44:50.518Z,15.72
2019-06-07T22:47:18.139Z,15.73
2019-06-07T22:49:44.420Z,15.62
2019-06-07T22:52:13.442Z,15.59
2019-06-07T22:54:38.686Z,15.45
2019-06-07T22:57:05.290Z,15.40
2019-06-07T22:59:31.506Z,15.29
2019-06-07T23:01:57.659Z,15.31
2019-06-07T23:04:23.749Z,15.37
2019-06-07T23:06:49.923Z,15.49
2019-06-07T23:09:17.114Z,15.31
2019-06-07T23:11:43.501Z,15.18
2019-06-07T23:14:09.748Z,15.21
2019-06-07T23:16:35.920Z,15.32
2019-06-07T23:19:02.136Z,15.37
2019-06-07T23:21:28.196Z,15.20
2019-06-07T23:23:54.285Z,15.21
2019-06-07T23:26:20.657Z,15.24
2019-06-07T23:28:46.997Z,15.19
2019-06-07T23:31:14.355Z,15.12
2019-06-07T23:33:40.665Z,14.94
2019-06-07T23:36:06.863Z,14.98
2019-06-07T23:38:33.030Z,15.00
2019-06-07T23:40:59.331Z,14.95
2019-06-07T23:43:25.379Z,14.85
2019-06-07T23:45:51.479Z,14.75
2019-06-07T23:48:17.566Z,14.67
2019-06-07T23:50:43.770Z,14.73
2019-06-07T23:53:09.832Z,14.99
2019-06-07T23:55:37.036Z,14.96
2019-06-07T23:58:03.109Z,14.83
